sensor_id;sensor_type;location;lat;lon;timestamp;P1;durP1;ratioP1;P2;durP2;ratioP2
55575;SDS011;41437;45.478;9.116;2022-09-30T00:02:07;11.52;;;8.18;;
55575;SDS011;41437;45.478;9.116;2022-09-30T00:05:12;11.77;;;7.63;;
55575;SDS011;41437;45.478;9.116;2022-09-30T00:08:14;9.50;;;7.93;;
55575;SDS011;41437;45.478;9.116;2022-09-30T00:11:16;9.70;;;6.93;;
55575;SDS011;41437;45.478;9.116;2022-09-30T00:14:21;11.32;;;7.85;;
55575;SDS011;41437;45.478;9.116;2022-09-30T00:17:23;8.45;;;6.05;;
55575;SDS011;41437;45.478;9.116;2022-09-30T00:20:26;9.32;;;6.78;;
55575;SDS011;41437;45.478;9.116;2022-09-30T00:23:28;7.30;;;5.10;;
55575;SDS011;41437;45.478;9.116;2022-09-30T00:26:30;10.23;;;5.90;;
55575;SDS011;41437;45.478;9.116;2022-09-30T00:29:33;8.93;;;5.63;;
55575;SDS011;41437;45.478;9.116;2022-09-30T00:32:34;8.63;;;5.10;;
55575;SDS011;41437;45.478;9.116;2022-09-30T00:35:37;6.13;;;4.40;;
55575;SDS011;41437;45.478;9.116;2022-09-30T00:38:39;8.70;;;5.20;;
55575;SDS011;41437;45.478;9.116;2022-09-30T00:41:41;6.18;;;4.22;;
55575;SDS011;41437;45.478;9.116;2022-09-30T00:44:50;8.02;;;4.18;;
55575;SDS011;41437;45.478;9.116;2022-09-30T00:47:54;5.95;;;4.10;;
55575;SDS011;41437;45.478;9.116;2022-09-30T00:50:59;7.53;;;3.85;;
55575;SDS011;41437;45.478;9.116;2022-09-30T00:54:03;6.72;;;3.67;;
55575;SDS011;41437;45.478;9.116;2022-09-30T00:57:07;5.93;;;3.83;;
55575;SDS011;41437;45.478;9.116;2022-09-30T01:00:09;6.00;;;3.85;;
55575;SDS011;41437;45.478;9.116;2022-09-30T01:03:11;5.65;;;3.92;;
55575;SDS011;41437;45.478;9.116;2022-09-30T01:06:15;5.28;;;3.80;;
55575;SDS011;41437;45.478;9.116;2022-09-30T01:09:17;8.40;;;4.05;;
55575;SDS011;41437;45.478;9.116;2022-09-30T01:12:20;5.70;;;3.90;;
55575;SDS011;41437;45.478;9.116;2022-09-30T01:15:28;6.72;;;4.30;;
55575;SDS011;41437;45.478;9.116;2022-09-30T01:18:42;6.72;;;4.38;;
55575;SDS011;41437;45.478;9.116;2022-09-30T01:22:00;9.75;;;5.13;;
55575;SDS011;41437;45.478;9.116;2022-09-30T01:25:29;7.43;;;4.75;;
55575;SDS011;41437;45.478;9.116;2022-09-30T01:29:07;9.45;;;5.05;;
55575;SDS011;41437;45.478;9.116;2022-09-30T01:32:38;7.22;;;4.88;;
55575;SDS011;41437;45.478;9.116;2022-09-30T01:36:11;6.55;;;4.60;;
55575;SDS011;41437;45.478;9.116;2022-09-30T01:39:26;6.85;;;4.72;;
55575;SDS011;41437;45.478;9.116;2022-09-30T01:42:37;6.57;;;4.75;;
55575;SDS011;41437;45.478;9.116;2022-09-30T01:45:48;7.32;;;4.88;;
55575;SDS011;41437;45.478;9.116;2022-09-30T01:48:59;7.60;;;5.40;;
55575;SDS011;41437;45.478;9.116;2022-09-30T01:55:16;7.75;;;5.82;;
55575;SDS011;41437;45.478;9.116;2022-09-30T01:58:23;9.48;;;6.28;;
55575;SDS011;41437;45.478;9.116;2022-09-30T02:01:33;8.90;;;6.07;;
55575;SDS011;41437;45.478;9.116;2022-09-30T02:04:41;10.32;;;6.40;;
55575;SDS011;41437;45.478;9.116;2022-09-30T02:07:49;9.07;;;6.57;;
55575;SDS011;41437;45.478;9.116;2022-09-30T02:10:55;8.80;;;6.55;;
55575;SDS011;41437;45.478;9.116;2022-09-30T02:14:00;10.48;;;6.93;;
55575;SDS011;41437;45.478;9.116;2022-09-30T02:17:06;9.48;;;6.40;;
55575;SDS011;41437;45.478;9.116;2022-09-30T02:20:14;9.77;;;7.00;;
55575;SDS011;41437;45.478;9.116;2022-09-30T02:23:22;9.85;;;7.07;;
55575;SDS011;41437;45.478;9.116;2022-09-30T02:26:28;9.98;;;7.53;;
55575;SDS011;41437;45.478;9.116;2022-09-30T02:29:34;10.43;;;8.18;;
55575;SDS011;41437;45.478;9.116;2022-09-30T02:32:40;13.30;;;7.95;;
55575;SDS011;41437;45.478;9.116;2022-09-30T02:35:49;12.15;;;8.70;;
55575;SDS011;41437;45.478;9.116;2022-09-30T02:38:55;11.73;;;8.93;;
55575;SDS011;41437;45.478;9.116;2022-09-30T02:42:03;12.70;;;8.90;;
55575;SDS011;41437;45.478;9.116;2022-09-30T02:45:12;11.23;;;7.72;;
55575;SDS011;41437;45.478;9.116;2022-09-30T02:48:19;9.65;;;7.78;;
55575;SDS011;41437;45.478;9.116;2022-09-30T02:51:34;12.80;;;8.40;;
55575;SDS011;41437;45.478;9.116;2022-09-30T02:54:46;11.02;;;7.75;;
55575;SDS011;41437;45.478;9.116;2022-09-30T02:57:55;10.07;;;7.63;;
55575;SDS011;41437;45.478;9.116;2022-09-30T03:01:00;11.32;;;8.10;;
55575;SDS011;41437;45.478;9.116;2022-09-30T03:04:03;11.32;;;8.30;;
55575;SDS011;41437;45.478;9.116;2022-09-30T03:07:09;12.27;;;8.38;;
55575;SDS011;41437;45.478;9.116;2022-09-30T03:10:12;11.50;;;7.85;;
55575;SDS011;41437;45.478;9.116;2022-09-30T03:17:02;9.30;;;6.85;;
55575;SDS011;41437;45.478;9.116;2022-09-30T03:20:45;9.43;;;7.15;;
55575;SDS011;41437;45.478;9.116;2022-09-30T03:27:30;13.93;;;7.88;;
55575;SDS011;41437;45.478;9.116;2022-09-30T03:30:40;10.27;;;7.47;;
55575;SDS011;41437;45.478;9.116;2022-09-30T03:33:50;9.65;;;7.47;;
55575;SDS011;41437;45.478;9.116;2022-09-30T03:36:57;9.80;;;7.22;;
55575;SDS011;41437;45.478;9.116;2022-09-30T03:40:05;10.32;;;7.20;;
55575;SDS011;41437;45.478;9.116;2022-09-30T03:43:15;10.88;;;7.07;;
55575;SDS011;41437;45.478;9.116;2022-09-30T03:46:25;10.18;;;6.78;;
55575;SDS011;41437;45.478;9.116;2022-09-30T03:49:34;11.07;;;6.97;;
55575;SDS011;41437;45.478;9.116;2022-09-30T03:52:40;10.55;;;6.78;;
55575;SDS011;41437;45.478;9.116;2022-09-30T03:55:44;9.65;;;6.93;;
55575;SDS011;41437;45.478;9.116;2022-09-30T03:58:47;9.93;;;6.57;;
55575;SDS011;41437;45.478;9.116;2022-09-30T04:01:49;9.93;;;6.68;;
55575;SDS011;41437;45.478;9.116;2022-09-30T04:04:51;8.95;;;6.65;;
55575;SDS011;41437;45.478;9.116;2022-09-30T04:07:53;8.77;;;5.65;;
55575;SDS011;41437;45.478;9.116;2022-09-30T04:10:56;11.85;;;6.57;;
55575;SDS011;41437;45.478;9.116;2022-09-30T04:13:57;10.23;;;6.37;;
55575;SDS011;41437;45.478;9.116;2022-09-30T04:17:00;9.85;;;6.25;;
55575;SDS011;41437;45.478;9.116;2022-09-30T04:20:03;7.45;;;5.70;;
55575;SDS011;41437;45.478;9.116;2022-09-30T04:23:05;8.20;;;5.78;;
55575;SDS011;41437;45.478;9.116;2022-09-30T04:26:09;7.97;;;5.05;;
55575;SDS011;41437;45.478;9.116;2022-09-30T04:29:12;6.65;;;4.45;;
55575;SDS011;41437;45.478;9.116;2022-09-30T04:32:14;7.43;;;4.70;;
55575;SDS011;41437;45.478;9.116;2022-09-30T04:35:16;7.22;;;4.28;;
55575;SDS011;41437;45.478;9.116;2022-09-30T04:38:17;6.97;;;4.30;;
55575;SDS011;41437;45.478;9.116;2022-09-30T04:41:21;7.15;;;4.03;;
55575;SDS011;41437;45.478;9.116;2022-09-30T04:44:22;8.00;;;4.23;;
55575;SDS011;41437;45.478;9.116;2022-09-30T04:47:24;6.72;;;3.97;;
55575;SDS011;41437;45.478;9.116;2022-09-30T04:50:26;7.70;;;4.35;;
55575;SDS011;41437;45.478;9.116;2022-09-30T04:53:27;5.65;;;3.78;;
55575;SDS011;41437;45.478;9.116;2022-09-30T04:56:30;4.85;;;3.50;;
55575;SDS011;41437;45.478;9.116;2022-09-30T04:59:32;4.87;;;3.00;;
55575;SDS011;41437;45.478;9.116;2022-09-30T05:02:34;7.45;;;3.38;;
55575;SDS011;41437;45.478;9.116;2022-09-30T05:05:35;5.22;;;3.13;;
55575;SDS011;41437;45.478;9.116;2022-09-30T05:08:37;5.28;;;3.00;;
55575;SDS011;41437;45.478;9.116;2022-09-30T05:11:40;4.95;;;2.70;;
55575;SDS011;41437;45.478;9.116;2022-09-30T05:14:42;4.60;;;2.93;;
55575;SDS011;41437;45.478;9.116;2022-09-30T05:17:43;5.63;;;3.38;;
55575;SDS011;41437;45.478;9.116;2022-09-30T05:20:47;6.80;;;3.63;;
55575;SDS011;41437;45.478;9.116;2022-09-30T05:23:53;5.53;;;3.40;;
55575;SDS011;41437;45.478;9.116;2022-09-30T05:26:58;5.78;;;3.05;;
55575;SDS011;41437;45.478;9.116;2022-09-30T05:30:01;5.57;;;3.63;;
55575;SDS011;41437;45.478;9.116;2022-09-30T05:33:03;6.65;;;3.70;;
55575;SDS011;41437;45.478;9.116;2022-09-30T05:36:06;6.22;;;3.45;;
55575;SDS011;41437;45.478;9.116;2022-09-30T05:39:09;7.25;;;3.60;;
55575;SDS011;41437;45.478;9.116;2022-09-30T05:42:13;4.97;;;2.30;;
55575;SDS011;41437;45.478;9.116;2022-09-30T05:45:14;5.77;;;2.80;;
55575;SDS011;41437;45.478;9.116;2022-09-30T05:48:16;7.13;;;3.20;;
55575;SDS011;41437;45.478;9.116;2022-09-30T05:51:18;5.22;;;2.20;;
55575;SDS011;41437;45.478;9.116;2022-09-30T05:54:20;8.38;;;2.35;;
55575;SDS011;41437;45.478;9.116;2022-09-30T05:57:25;3.92;;;2.40;;
55575;SDS011;41437;45.478;9.116;2022-09-30T06:00:27;6.13;;;1.90;;
55575;SDS011;41437;45.478;9.116;2022-09-30T06:03:29;4.25;;;1.40;;
55575;SDS011;41437;45.478;9.116;2022-09-30T06:06:30;5.35;;;1.42;;
55575;SDS011;41437;45.478;9.116;2022-09-30T06:09:33;2.53;;;1.40;;
55575;SDS011;41437;45.478;9.116;2022-09-30T06:12:36;3.00;;;1.58;;
55575;SDS011;41437;45.478;9.116;2022-09-30T06:15:38;5.88;;;2.10;;
55575;SDS011;41437;45.478;9.116;2022-09-30T06:18:40;5.35;;;1.55;;
55575;SDS011;41437;45.478;9.116;2022-09-30T06:21:42;2.40;;;1.20;;
55575;SDS011;41437;45.478;9.116;2022-09-30T06:24:43;4.28;;;1.20;;
55575;SDS011;41437;45.478;9.116;2022-09-30T06:27:46;3.25;;;1.23;;
55575;SDS011;41437;45.478;9.116;2022-09-30T06:30:49;2.25;;;1.10;;
55575;SDS011;41437;45.478;9.116;2022-09-30T06:33:51;2.13;;;1.00;;
55575;SDS011;41437;45.478;9.116;2022-09-30T06:36:53;1.90;;;0.93;;
55575;SDS011;41437;45.478;9.116;2022-09-30T06:39:55;3.92;;;1.10;;
55575;SDS011;41437;45.478;9.116;2022-09-30T06:42:58;2.65;;;1.25;;
55575;SDS011;41437;45.478;9.116;2022-09-30T06:46:00;3.55;;;1.30;;
55575;SDS011;41437;45.478;9.116;2022-09-30T06:49:01;5.20;;;1.20;;
55575;SDS011;41437;45.478;9.116;2022-09-30T06:52:05;4.45;;;1.38;;
55575;SDS011;41437;45.478;9.116;2022-09-30T06:55:06;3.45;;;1.10;;
55575;SDS011;41437;45.478;9.116;2022-09-30T06:58:13;3.10;;;1.30;;
55575;SDS011;41437;45.478;9.116;2022-09-30T07:01:15;3.75;;;1.50;;
55575;SDS011;41437;45.478;9.116;2022-09-30T07:04:17;3.67;;;1.50;;
55575;SDS011;41437;45.478;9.116;2022-09-30T07:07:19;6.10;;;1.70;;
55575;SDS011;41437;45.478;9.116;2022-09-30T07:10:21;4.30;;;1.55;;
55575;SDS011;41437;45.478;9.116;2022-09-30T07:13:24;4.03;;;1.67;;
55575;SDS011;41437;45.478;9.116;2022-09-30T07:16:26;5.18;;;1.60;;
55575;SDS011;41437;45.478;9.116;2022-09-30T07:19:27;7.35;;;2.35;;
55575;SDS011;41437;45.478;9.116;2022-09-30T07:22:29;9.02;;;1.90;;
55575;SDS011;41437;45.478;9.116;2022-09-30T07:25:33;7.15;;;1.63;;
55575;SDS011;41437;45.478;9.116;2022-09-30T07:28:36;4.80;;;1.48;;
55575;SDS011;41437;45.478;9.116;2022-09-30T07:31:38;3.28;;;1.38;;
55575;SDS011;41437;45.478;9.116;2022-09-30T07:34:41;3.25;;;1.35;;
55575;SDS011;41437;45.478;9.116;2022-09-30T07:37:43;3.90;;;1.77;;
55575;SDS011;41437;45.478;9.116;2022-09-30T07:40:52;3.13;;;1.35;;
55575;SDS011;41437;45.478;9.116;2022-09-30T07:43:56;3.80;;;1.42;;
55575;SDS011;41437;45.478;9.116;2022-09-30T07:46:59;4.43;;;1.58;;
55575;SDS011;41437;45.478;9.116;2022-09-30T07:50:00;5.63;;;1.48;;
55575;SDS011;41437;45.478;9.116;2022-09-30T07:53:03;3.85;;;1.40;;
55575;SDS011;41437;45.478;9.116;2022-09-30T07:56:05;3.58;;;1.33;;
55575;SDS011;41437;45.478;9.116;2022-09-30T07:59:10;3.80;;;1.60;;
55575;SDS011;41437;45.478;9.116;2022-09-30T08:02:14;4.25;;;1.60;;
55575;SDS011;41437;45.478;9.116;2022-09-30T08:05:17;3.67;;;1.23;;
55575;SDS011;41437;45.478;9.116;2022-09-30T08:08:20;3.72;;;1.50;;
55575;SDS011;41437;45.478;9.116;2022-09-30T08:11:23;4.63;;;1.70;;
55575;SDS011;41437;45.478;9.116;2022-09-30T08:14:27;4.45;;;1.60;;
55575;SDS011;41437;45.478;9.116;2022-09-30T08:17:28;4.18;;;1.40;;
55575;SDS011;41437;45.478;9.116;2022-09-30T08:20:30;3.67;;;1.60;;
55575;SDS011;41437;45.478;9.116;2022-09-30T08:23:32;5.75;;;1.70;;
55575;SDS011;41437;45.478;9.116;2022-09-30T08:26:34;3.13;;;1.40;;
55575;SDS011;41437;45.478;9.116;2022-09-30T08:29:37;3.60;;;1.48;;
55575;SDS011;41437;45.478;9.116;2022-09-30T08:32:38;5.05;;;1.50;;
55575;SDS011;41437;45.478;9.116;2022-09-30T08:35:40;3.70;;;1.40;;
55575;SDS011;41437;45.478;9.116;2022-09-30T08:38:43;5.93;;;1.80;;
55575;SDS011;41437;45.478;9.116;2022-09-30T08:44:59;5.70;;;1.80;;
55575;SDS011;41437;45.478;9.116;2022-09-30T08:48:13;5.85;;;1.73;;
55575;SDS011;41437;45.478;9.116;2022-09-30T08:51:33;3.67;;;1.63;;
55575;SDS011;41437;45.478;9.116;2022-09-30T08:54:39;3.85;;;1.70;;
55575;SDS011;41437;45.478;9.116;2022-09-30T08:57:45;4.57;;;1.80;;
55575;SDS011;41437;45.478;9.116;2022-09-30T09:00:49;4.68;;;1.83;;
55575;SDS011;41437;45.478;9.116;2022-09-30T09:03:57;6.53;;;2.20;;
55575;SDS011;41437;45.478;9.116;2022-09-30T09:07:01;8.43;;;2.33;;
55575;SDS011;41437;45.478;9.116;2022-09-30T09:10:13;4.55;;;2.30;;
55575;SDS011;41437;45.478;9.116;2022-09-30T09:13:30;5.53;;;2.17;;
55575;SDS011;41437;45.478;9.116;2022-09-30T09:16:47;4.43;;;2.60;;
55575;SDS011;41437;45.478;9.116;2022-09-30T09:20:02;4.88;;;2.47;;
55575;SDS011;41437;45.478;9.116;2022-09-30T09:23:13;7.78;;;3.00;;
55575;SDS011;41437;45.478;9.116;2022-09-30T09:26:14;6.15;;;2.90;;
55575;SDS011;41437;45.478;9.116;2022-09-30T09:29:19;6.28;;;3.00;;
55575;SDS011;41437;45.478;9.116;2022-09-30T09:32:29;6.60;;;2.72;;
55575;SDS011;41437;45.478;9.116;2022-09-30T09:35:34;6.35;;;3.38;;
55575;SDS011;41437;45.478;9.116;2022-09-30T09:38:46;7.88;;;3.40;;
55575;SDS011;41437;45.478;9.116;2022-09-30T09:42:00;5.75;;;3.42;;
55575;SDS011;41437;45.478;9.116;2022-09-30T09:45:12;5.65;;;3.45;;
55575;SDS011;41437;45.478;9.116;2022-09-30T09:48:24;5.57;;;3.83;;
55575;SDS011;41437;45.478;9.116;2022-09-30T09:51:27;8.23;;;3.92;;
55575;SDS011;41437;45.478;9.116;2022-09-30T09:54:34;8.77;;;4.90;;
55575;SDS011;41437;45.478;9.116;2022-09-30T09:57:40;8.02;;;5.15;;
55575;SDS011;41437;45.478;9.116;2022-09-30T10:00:42;8.63;;;4.95;;
55575;SDS011;41437;45.478;9.116;2022-09-30T10:04:13;7.45;;;4.40;;
55575;SDS011;41437;45.478;9.116;2022-09-30T10:07:18;10.45;;;4.82;;
55575;SDS011;41437;45.478;9.116;2022-09-30T10:10:23;8.85;;;4.72;;
55575;SDS011;41437;45.478;9.116;2022-09-30T10:13:26;8.18;;;4.80;;
55575;SDS011;41437;45.478;9.116;2022-09-30T10:16:30;8.75;;;5.50;;
55575;SDS011;41437;45.478;9.116;2022-09-30T10:19:35;8.55;;;5.30;;
55575;SDS011;41437;45.478;9.116;2022-09-30T10:22:38;10.02;;;5.95;;
55575;SDS011;41437;45.478;9.116;2022-09-30T10:25:46;9.43;;;5.85;;
55575;SDS011;41437;45.478;9.116;2022-09-30T10:29:20;8.75;;;6.13;;
55575;SDS011;41437;45.478;9.116;2022-09-30T10:32:28;11.10;;;5.50;;
55575;SDS011;41437;45.478;9.116;2022-09-30T10:35:34;9.57;;;5.55;;
55575;SDS011;41437;45.478;9.116;2022-09-30T10:38:36;8.07;;;5.57;;
55575;SDS011;41437;45.478;9.116;2022-09-30T10:41:45;10.73;;;6.07;;
55575;SDS011;41437;45.478;9.116;2022-09-30T10:44:48;12.75;;;5.72;;
55575;SDS011;41437;45.478;9.116;2022-09-30T10:47:53;11.98;;;6.43;;
55575;SDS011;41437;45.478;9.116;2022-09-30T10:51:01;9.18;;;5.63;;
55575;SDS011;41437;45.478;9.116;2022-09-30T10:54:04;10.27;;;6.53;;
55575;SDS011;41437;45.478;9.116;2022-09-30T10:57:09;11.98;;;7.35;;
55575;SDS011;41437;45.478;9.116;2022-09-30T11:00:16;11.55;;;7.63;;
55575;SDS011;41437;45.478;9.116;2022-09-30T11:03:21;9.75;;;7.05;;
55575;SDS011;41437;45.478;9.116;2022-09-30T11:06:32;9.98;;;7.15;;
55575;SDS011;41437;45.478;9.116;2022-09-30T11:09:36;10.57;;;7.35;;
55575;SDS011;41437;45.478;9.116;2022-09-30T11:12:44;12.45;;;7.00;;
55575;SDS011;41437;45.478;9.116;2022-09-30T11:15:54;12.13;;;7.32;;
55575;SDS011;41437;45.478;9.116;2022-09-30T11:19:03;10.15;;;6.78;;
55575;SDS011;41437;45.478;9.116;2022-09-30T11:22:18;11.00;;;7.43;;
55575;SDS011;41437;45.478;9.116;2022-09-30T11:25:33;12.95;;;7.43;;
55575;SDS011;41437;45.478;9.116;2022-09-30T11:28:46;11.13;;;7.35;;
55575;SDS011;41437;45.478;9.116;2022-09-30T11:32:00;12.35;;;8.02;;
55575;SDS011;41437;45.478;9.116;2022-09-30T11:35:13;12.80;;;8.30;;
55575;SDS011;41437;45.478;9.116;2022-09-30T11:38:33;12.98;;;8.02;;
55575;SDS011;41437;45.478;9.116;2022-09-30T11:41:54;11.27;;;9.15;;
55575;SDS011;41437;45.478;9.116;2022-09-30T11:45:05;12.07;;;8.50;;
55575;SDS011;41437;45.478;9.116;2022-09-30T11:48:28;11.93;;;8.23;;
55575;SDS011;41437;45.478;9.116;2022-09-30T11:51:41;11.77;;;8.10;;
55575;SDS011;41437;45.478;9.116;2022-09-30T11:55:00;13.32;;;8.30;;
55575;SDS011;41437;45.478;9.116;2022-09-30T11:58:28;9.63;;;7.15;;
55575;SDS011;41437;45.478;9.116;2022-09-30T12:01:35;11.05;;;7.20;;
55575;SDS011;41437;45.478;9.116;2022-09-30T12:04:42;8.45;;;6.10;;
55575;SDS011;41437;45.478;9.116;2022-09-30T12:07:46;9.98;;;5.55;;
55575;SDS011;41437;45.478;9.116;2022-09-30T12:10:54;7.68;;;5.00;;
55575;SDS011;41437;45.478;9.116;2022-09-30T12:14:00;7.13;;;4.95;;
55575;SDS011;41437;45.478;9.116;2022-09-30T12:17:11;6.82;;;4.82;;
55575;SDS011;41437;45.478;9.116;2022-09-30T12:20:22;7.25;;;4.63;;
55575;SDS011;41437;45.478;9.116;2022-09-30T12:23:29;9.07;;;4.68;;
55575;SDS011;41437;45.478;9.116;2022-09-30T12:26:35;9.15;;;4.70;;
55575;SDS011;41437;45.478;9.116;2022-09-30T12:29:39;7.55;;;4.43;;
55575;SDS011;41437;45.478;9.116;2022-09-30T12:33:17;7.47;;;4.43;;
55575;SDS011;41437;45.478;9.116;2022-09-30T12:36:35;7.55;;;4.40;;
55575;SDS011;41437;45.478;9.116;2022-09-30T12:43:24;8.30;;;4.28;;
55575;SDS011;41437;45.478;9.116;2022-09-30T12:46:40;9.98;;;5.15;;
55575;SDS011;41437;45.478;9.116;2022-09-30T12:49:53;9.15;;;4.68;;
55575;SDS011;41437;45.478;9.116;2022-09-30T12:52:58;7.43;;;4.18;;
55575;SDS011;41437;45.478;9.116;2022-09-30T12:59:15;7.43;;;4.07;;
55575;SDS011;41437;45.478;9.116;2022-09-30T13:02:27;7.80;;;4.25;;
55575;SDS011;41437;45.478;9.116;2022-09-30T13:05:43;9.70;;;4.45;;
55575;SDS011;41437;45.478;9.116;2022-09-30T13:09:16;8.80;;;4.18;;
55575;SDS011;41437;45.478;9.116;2022-09-30T13:12:25;8.10;;;4.05;;
55575;SDS011;41437;45.478;9.116;2022-09-30T13:15:43;8.98;;;4.68;;
55575;SDS011;41437;45.478;9.116;2022-09-30T13:18:57;11.35;;;7.38;;
55575;SDS011;41437;45.478;9.116;2022-09-30T13:25:53;7.43;;;3.38;;
55575;SDS011;41437;45.478;9.116;2022-09-30T13:32:40;7.05;;;3.90;;
55575;SDS011;41437;45.478;9.116;2022-09-30T13:35:48;8.23;;;3.60;;
55575;SDS011;41437;45.478;9.116;2022-09-30T13:39:05;8.05;;;3.65;;
55575;SDS011;41437;45.478;9.116;2022-09-30T13:42:19;9.20;;;2.50;;
55575;SDS011;41437;45.478;9.116;2022-09-30T13:45:29;4.15;;;2.50;;
55575;SDS011;41437;45.478;9.116;2022-09-30T13:48:39;6.43;;;2.65;;
55575;SDS011;41437;45.478;9.116;2022-09-30T13:51:45;6.82;;;2.83;;
55575;SDS011;41437;45.478;9.116;2022-09-30T13:54:47;5.30;;;2.50;;
55575;SDS011;41437;45.478;9.116;2022-09-30T13:57:57;8.63;;;3.08;;
55575;SDS011;41437;45.478;9.116;2022-09-30T14:01:19;6.43;;;2.83;;
55575;SDS011;41437;45.478;9.116;2022-09-30T14:08:19;6.53;;;2.65;;
55575;SDS011;41437;45.478;9.116;2022-09-30T14:11:36;5.20;;;2.72;;
55575;SDS011;41437;45.478;9.116;2022-09-30T14:14:52;5.55;;;2.53;;
55575;SDS011;41437;45.478;9.116;2022-09-30T14:18:29;5.82;;;2.85;;
55575;SDS011;41437;45.478;9.116;2022-09-30T14:21:47;5.70;;;2.83;;
55575;SDS011;41437;45.478;9.116;2022-09-30T14:24:52;5.22;;;2.65;;
55575;SDS011;41437;45.478;9.116;2022-09-30T14:27:56;5.47;;;3.30;;
55575;SDS011;41437;45.478;9.116;2022-09-30T14:31:03;5.45;;;3.50;;
55575;SDS011;41437;45.478;9.116;2022-09-30T14:34:08;5.43;;;2.90;;
55575;SDS011;41437;45.478;9.116;2022-09-30T14:40:19;5.85;;;3.70;;
55575;SDS011;41437;45.478;9.116;2022-09-30T14:43:25;5.78;;;3.38;;
55575;SDS011;41437;45.478;9.116;2022-09-30T14:46:35;7.97;;;4.05;;
55575;SDS011;41437;45.478;9.116;2022-09-30T14:49:39;5.80;;;3.95;;
55575;SDS011;41437;45.478;9.116;2022-09-30T14:52:43;6.43;;;3.85;;
55575;SDS011;41437;45.478;9.116;2022-09-30T14:55:48;6.07;;;3.80;;
55575;SDS011;41437;45.478;9.116;2022-09-30T14:58:50;7.32;;;4.03;;
55575;SDS011;41437;45.478;9.116;2022-09-30T15:01:53;6.85;;;4.07;;
55575;SDS011;41437;45.478;9.116;2022-09-30T15:05:00;8.38;;;4.63;;
55575;SDS011;41437;45.478;9.116;2022-09-30T15:08:10;6.55;;;4.57;;
55575;SDS011;41437;45.478;9.116;2022-09-30T15:11:16;7.68;;;4.25;;
55575;SDS011;41437;45.478;9.116;2022-09-30T15:14:19;8.60;;;5.85;;
55575;SDS011;41437;45.478;9.116;2022-09-30T15:17:23;6.38;;;4.20;;
55575;SDS011;41437;45.478;9.116;2022-09-30T15:20:28;5.47;;;3.75;;
55575;SDS011;41437;45.478;9.116;2022-09-30T15:23:34;7.00;;;3.85;;
55575;SDS011;41437;45.478;9.116;2022-09-30T15:26:38;6.57;;;4.15;;
55575;SDS011;41437;45.478;9.116;2022-09-30T15:29:52;6.22;;;3.60;;
55575;SDS011;41437;45.478;9.116;2022-09-30T15:32:58;9.10;;;4.57;;
55575;SDS011;41437;45.478;9.116;2022-09-30T15:36:04;7.55;;;4.07;;
55575;SDS011;41437;45.478;9.116;2022-09-30T15:39:20;8.10;;;4.75;;
55575;SDS011;41437;45.478;9.116;2022-09-30T15:42:28;8.00;;;4.13;;
55575;SDS011;41437;45.478;9.116;2022-09-30T15:45:34;7.40;;;4.80;;
55575;SDS011;41437;45.478;9.116;2022-09-30T15:48:38;9.27;;;4.65;;
55575;SDS011;41437;45.478;9.116;2022-09-30T15:51:43;9.15;;;5.00;;
55575;SDS011;41437;45.478;9.116;2022-09-30T15:54:47;7.43;;;4.78;;
55575;SDS011;41437;45.478;9.116;2022-09-30T15:57:48;11.33;;;6.40;;
55575;SDS011;41437;45.478;9.116;2022-09-30T16:00:51;8.27;;;5.75;;
55575;SDS011;41437;45.478;9.116;2022-09-30T16:03:54;7.80;;;5.82;;
55575;SDS011;41437;45.478;9.116;2022-09-30T16:06:58;8.35;;;4.90;;
55575;SDS011;41437;45.478;9.116;2022-09-30T16:10:13;8.35;;;5.97;;
55575;SDS011;41437;45.478;9.116;2022-09-30T16:13:20;7.90;;;5.38;;
55575;SDS011;41437;45.478;9.116;2022-09-30T16:16:24;10.82;;;5.93;;
55575;SDS011;41437;45.478;9.116;2022-09-30T16:19:28;10.25;;;7.00;;
55575;SDS011;41437;45.478;9.116;2022-09-30T16:29:24;10.90;;;8.27;;
55575;SDS011;41437;45.478;9.116;2022-09-30T16:38:33;10.00;;;8.43;;
55575;SDS011;41437;45.478;9.116;2022-09-30T16:41:36;13.93;;;8.88;;
55575;SDS011;41437;45.478;9.116;2022-09-30T16:44:37;10.67;;;8.47;;
55575;SDS011;41437;45.478;9.116;2022-09-30T16:47:39;13.85;;;9.40;;
55575;SDS011;41437;45.478;9.116;2022-09-30T16:50:42;12.73;;;9.30;;
55575;SDS011;41437;45.478;9.116;2022-09-30T16:53:49;11.43;;;8.85;;
55575;SDS011;41437;45.478;9.116;2022-09-30T16:56:52;11.85;;;9.25;;
55575;SDS011;41437;45.478;9.116;2022-09-30T16:59:55;12.43;;;9.55;;
55575;SDS011;41437;45.478;9.116;2022-09-30T17:02:57;11.52;;;9.10;;
55575;SDS011;41437;45.478;9.116;2022-09-30T17:06:00;13.18;;;9.40;;
55575;SDS011;41437;45.478;9.116;2022-09-30T17:09:02;12.88;;;9.57;;
55575;SDS011;41437;45.478;9.116;2022-09-30T17:12:09;13.18;;;8.95;;
55575;SDS011;41437;45.478;9.116;2022-09-30T17:15:12;11.73;;;8.77;;
55575;SDS011;41437;45.478;9.116;2022-09-30T17:18:14;12.35;;;9.55;;
55575;SDS011;41437;45.478;9.116;2022-09-30T17:21:16;11.70;;;10.20;;
55575;SDS011;41437;45.478;9.116;2022-09-30T17:24:18;14.07;;;10.23;;
55575;SDS011;41437;45.478;9.116;2022-09-30T17:27:31;13.77;;;9.93;;
55575;SDS011;41437;45.478;9.116;2022-09-30T17:33:41;12.10;;;9.43;;
55575;SDS011;41437;45.478;9.116;2022-09-30T17:36:45;13.43;;;10.13;;
55575;SDS011;41437;45.478;9.116;2022-09-30T17:39:47;12.15;;;8.40;;
55575;SDS011;41437;45.478;9.116;2022-09-30T17:42:54;11.60;;;9.55;;
55575;SDS011;41437;45.478;9.116;2022-09-30T17:46:07;11.57;;;9.07;;
55575;SDS011;41437;45.478;9.116;2022-09-30T17:49:09;11.38;;;9.70;;
55575;SDS011;41437;45.478;9.116;2022-09-30T17:52:14;14.02;;;9.50;;
55575;SDS011;41437;45.478;9.116;2022-09-30T17:55:23;12.93;;;9.18;;
55575;SDS011;41437;45.478;9.116;2022-09-30T17:58:31;12.70;;;9.10;;
55575;SDS011;41437;45.478;9.116;2022-09-30T18:01:33;15.15;;;9.32;;
55575;SDS011;41437;45.478;9.116;2022-09-30T18:04:36;12.15;;;9.10;;
55575;SDS011;41437;45.478;9.116;2022-09-30T18:07:38;11.33;;;8.37;;
55575;SDS011;41437;45.478;9.116;2022-09-30T18:10:40;12.45;;;8.00;;
55575;SDS011;41437;45.478;9.116;2022-09-30T18:13:45;16.35;;;8.00;;
55575;SDS011;41437;45.478;9.116;2022-09-30T18:17:13;12.60;;;6.80;;
55575;SDS011;41437;45.478;9.116;2022-09-30T18:20:16;12.73;;;7.25;;
55575;SDS011;41437;45.478;9.116;2022-09-30T18:23:21;11.20;;;7.28;;
55575;SDS011;41437;45.478;9.116;2022-09-30T18:26:22;12.65;;;7.53;;
55575;SDS011;41437;45.478;9.116;2022-09-30T18:29:26;11.32;;;6.85;;
55575;SDS011;41437;45.478;9.116;2022-09-30T18:32:28;11.63;;;6.55;;
55575;SDS011;41437;45.478;9.116;2022-09-30T18:35:38;9.50;;;6.10;;
55575;SDS011;41437;45.478;9.116;2022-09-30T18:38:41;12.85;;;6.55;;
55575;SDS011;41437;45.478;9.116;2022-09-30T18:41:42;9.57;;;6.53;;
55575;SDS011;41437;45.478;9.116;2022-09-30T18:44:49;11.05;;;6.20;;
55575;SDS011;41437;45.478;9.116;2022-09-30T18:47:53;11.63;;;6.72;;
55575;SDS011;41437;45.478;9.116;2022-09-30T18:51:00;8.98;;;6.18;;
55575;SDS011;41437;45.478;9.116;2022-09-30T18:54:02;11.15;;;6.15;;
55575;SDS011;41437;45.478;9.116;2022-09-30T18:57:08;10.27;;;5.75;;
55575;SDS011;41437;45.478;9.116;2022-09-30T19:00:12;11.68;;;6.20;;
55575;SDS011;41437;45.478;9.116;2022-09-30T19:03:14;9.65;;;5.53;;
55575;SDS011;41437;45.478;9.116;2022-09-30T19:06:19;8.43;;;5.30;;
55575;SDS011;41437;45.478;9.116;2022-09-30T19:09:23;10.75;;;6.03;;
55575;SDS011;41437;45.478;9.116;2022-09-30T19:12:26;8.25;;;5.38;;
55575;SDS011;41437;45.478;9.116;2022-09-30T19:15:37;11.13;;;5.30;;
55575;SDS011;41437;45.478;9.116;2022-09-30T19:18:39;7.95;;;5.38;;
55575;SDS011;41437;45.478;9.116;2022-09-30T19:21:42;9.70;;;5.68;;
55575;SDS011;41437;45.478;9.116;2022-09-30T19:24:46;8.52;;;5.68;;
55575;SDS011;41437;45.478;9.116;2022-09-30T19:27:48;9.55;;;5.78;;
55575;SDS011;41437;45.478;9.116;2022-09-30T19:30:52;9.57;;;5.60;;